sensor_id;sensor_type;location;lat;lon;timestamp;temperature;humidity
46508;DHT22;32223;53.654;10.014;2022-09-24T00:00:46;12.10;99.90
46508;DHT22;32223;53.654;10.014;2022-09-24T00:03:16;12.00;99.90
46508;DHT22;32223;53.654;10.014;2022-09-24T00:05:44;12.10;99.90
46508;DHT22;32223;53.654;10.014;2022-09-24T00:08:10;12.10;99.90
46508;DHT22;32223;53.654;10.014;2022-09-24T00:10:40;12.00;99.90
46508;DHT22;32223;53.654;10.014;2022-09-24T00:13:07;12.10;99.90
46508;DHT22;32223;53.654;10.014;2022-09-24T00:15:40;12.10;99.90
46508;DHT22;32223;53.654;10.014;2022-09-24T00:18:06;12.10;99.90
46508;DHT22;32223;53.654;10.014;2022-09-24T00:20:35;12.00;99.90
46508;DHT22;32223;53.654;10.014;2022-09-24T00:23:01;12.10;99.90
46508;DHT22;32223;53.654;10.014;2022-09-24T00:25:27;12.00;99.90
46508;DHT22;32223;53.654;10.014;2022-09-24T00:28:12;12.10;99.90
46508;DHT22;32223;53.654;10.014;2022-09-24T00:30:39;12.10;99.90
46508;DHT22;32223;53.654;10.014;2022-09-24T00:33:06;12.10;99.90
46508;DHT22;32223;53.654;10.014;2022-09-24T00:35:33;12.10;99.90
46508;DHT22;32223;53.654;10.014;2022-09-24T00:37:58;12.10;99.90
46508;DHT22;32223;53.654;10.014;2022-09-24T00:40:35;12.10;99.90
46508;DHT22;32223;53.654;10.014;2022-09-24T00:43:40;12.00;99.90
46508;DHT22;32223;53.654;10.014;2022-09-24T00:46:39;12.10;99.90
46508;DHT22;32223;53.654;10.014;2022-09-24T00:49:11;12.00;99.90
46508;DHT22;32223;53.654;10.014;2022-09-24T00:51:40;12.00;99.90
46508;DHT22;32223;53.654;10.014;2022-09-24T00:54:10;12.00;99.90
46508;DHT22;32223;53.654;10.014;2022-09-24T00:56:38;12.00;99.90
46508;DHT22;32223;53.654;10.014;2022-09-24T00:59:06;12.00;99.90
46508;DHT22;32223;53.654;10.014;2022-09-24T01:01:32;12.00;99.90
46508;DHT22;32223;53.654;10.014;2022-09-24T01:03:59;12.00;99.90
46508;DHT22;32223;53.654;10.014;2022-09-24T01:06:26;12.00;99.90
46508;DHT22;32223;53.654;10.014;2022-09-24T01:08:53;12.00;99.90
46508;DHT22;32223;53.654;10.014;2022-09-24T01:17:28;11.90;99.90
46508;DHT22;32223;53.654;10.014;2022-09-24T01:30:40;11.90;99.90
46508;DHT22;32223;53.654;10.014;2022-09-24T01:33:12;11.90;99.90
46508;DHT22;32223;53.654;10.014;2022-09-24T01:35:46;11.90;99.90
46508;DHT22;32223;53.654;10.014;2022-09-24T01:38:20;11.80;99.90
46508;DHT22;32223;53.654;10.014;2022-09-24T01:40:47;11.90;99.90
46508;DHT22;32223;53.654;10.014;2022-09-24T01:43:15;11.90;99.90
46508;DHT22;32223;53.654;10.014;2022-09-24T01:45:41;11.90;99.90
46508;DHT22;32223;53.654;10.014;2022-09-24T01:48:08;11.90;99.90
46508;DHT22;32223;53.654;10.014;2022-09-24T01:50:40;12.00;99.90
46508;DHT22;32223;53.654;10.014;2022-09-24T01:53:21;11.90;99.90
46508;DHT22;32223;53.654;10.014;2022-09-24T01:56:40;11.90;99.90
46508;DHT22;32223;53.654;10.014;2022-09-24T01:59:05;11.90;99.90
46508;DHT22;32223;53.654;10.014;2022-09-24T02:04:15;11.90;99.90
46508;DHT22;32223;53.654;10.014;2022-09-24T02:09:34;11.80;99.90
46508;DHT22;32223;53.654;10.014;2022-09-24T02:12:10;11.90;99.90
46508;DHT22;32223;53.654;10.014;2022-09-24T02:14:43;11.80;99.90
46508;DHT22;32223;53.654;10.014;2022-09-24T02:17:09;11.90;99.90
46508;DHT22;32223;53.654;10.014;2022-09-24T02:19:37;11.80;99.90
46508;DHT22;32223;53.654;10.014;2022-09-24T02:22:05;11.80;99.90
46508;DHT22;32223;53.654;10.014;2022-09-24T02:24:37;11.90;99.90
46508;DHT22;32223;53.654;10.014;2022-09-24T02:27:04;11.80;99.90
46508;DHT22;32223;53.654;10.014;2022-09-24T02:29:30;11.80;99.90
46508;DHT22;32223;53.654;10.014;2022-09-24T02:31:56;11.80;99.90
46508;DHT22;32223;53.654;10.014;2022-09-24T02:34:28;11.80;99.90
46508;DHT22;32223;53.654;10.014;2022-09-24T02:37:04;11.80;99.90
46508;DHT22;32223;53.654;10.014;2022-09-24T02:39:30;11.80;99.90
46508;DHT22;32223;53.654;10.014;2022-09-24T02:41:56;11.80;99.90
46508;DHT22;32223;53.654;10.014;2022-09-24T02:44:22;11.80;99.90
46508;DHT22;32223;53.654;10.014;2022-09-24T02:46:49;11.80;99.90
46508;DHT22;32223;53.654;10.014;2022-09-24T02:49:15;11.80;99.90
46508;DHT22;32223;53.654;10.014;2022-09-24T02:51:42;11.80;99.90
46508;DHT22;32223;53.654;10.014;2022-09-24T02:54:08;11.80;99.90
46508;DHT22;32223;53.654;10.014;2022-09-24T02:56:35;11.80;99.90
46508;DHT22;32223;53.654;10.014;2022-09-24T02:59:01;11.80;99.90
46508;DHT22;32223;53.654;10.014;2022-09-24T03:01:28;11.80;99.90
46508;DHT22;32223;53.654;10.014;2022-09-24T03:03:53;11.80;99.90
46508;DHT22;32223;53.654;10.014;2022-09-24T03:06:19;11.80;99.90
46508;DHT22;32223;53.654;10.014;2022-09-24T03:08:45;11.80;99.90
46508;DHT22;32223;53.654;10.014;2022-09-24T03:11:11;11.70;99.90
46508;DHT22;32223;53.654;10.014;2022-09-24T03:13:38;11.80;99.90
46508;DHT22;32223;53.654;10.014;2022-09-24T03:16:05;11.80;99.90
46508;DHT22;32223;53.654;10.014;2022-09-24T03:18:31;11.70;99.90
46508;DHT22;32223;53.654;10.014;2022-09-24T03:20:59;11.70;99.90
46508;DHT22;32223;53.654;10.014;2022-09-24T03:23:25;11.70;99.90
46508;DHT22;32223;53.654;10.014;2022-09-24T03:25:51;11.70;99.90
46508;DHT22;32223;53.654;10.014;2022-09-24T03:28:17;11.70;99.90
46508;DHT22;32223;53.654;10.014;2022-09-24T03:30:43;11.80;99.90
46508;DHT22;32223;53.654;10.014;2022-09-24T03:33:31;11.80;99.90
46508;DHT22;32223;53.654;10.014;2022-09-24T03:36:05;11.80;99.90
46508;DHT22;32223;53.654;10.014;2022-09-24T03:38:32;11.80;99.90
46508;DHT22;32223;53.654;10.014;2022-09-24T03:40:58;11.80;99.90
46508;DHT22;32223;53.654;10.014;2022-09-24T03:43:25;11.80;99.90
46508;DHT22;32223;53.654;10.014;2022-09-24T03:45:51;11.90;99.90
46508;DHT22;32223;53.654;10.014;2022-09-24T03:48:18;11.90;99.90
46508;DHT22;32223;53.654;10.014;2022-09-24T03:50:44;11.90;99.90
46508;DHT22;32223;53.654;10.014;2022-09-24T03:53:11;11.80;99.90
46508;DHT22;32223;53.654;10.014;2022-09-24T03:55:52;11.80;99.90
46508;DHT22;32223;53.654;10.014;2022-09-24T03:58:18;11.90;99.90
46508;DHT22;32223;53.654;10.014;2022-09-24T04:00:44;11.90;99.90
46508;DHT22;32223;53.654;10.014;2022-09-24T04:03:09;11.90;99.90
46508;DHT22;32223;53.654;10.014;2022-09-24T04:05:35;11.80;99.90
46508;DHT22;32223;53.654;10.014;2022-09-24T04:08:01;11.90;99.90
46508;DHT22;32223;53.654;10.014;2022-09-24T04:10:28;11.80;99.90
46508;DHT22;32223;53.654;10.014;2022-09-24T04:12:54;11.80;99.90
46508;DHT22;32223;53.654;10.014;2022-09-24T04:15:20;11.80;99.90
46508;DHT22;32223;53.654;10.014;2022-09-24T04:17:54;11.80;99.90
46508;DHT22;32223;53.654;10.014;2022-09-24T04:20:21;11.80;99.90
46508;DHT22;32223;53.654;10.014;2022-09-24T04:22:48;11.80;99.90
46508;DHT22;32223;53.654;10.014;2022-09-24T04:25:15;11.80;99.90
46508;DHT22;32223;53.654;10.014;2022-09-24T04:27:41;11.80;99.90
46508;DHT22;32223;53.654;10.014;2022-09-24T04:30:08;11.80;99.90
46508;DHT22;32223;53.654;10.014;2022-09-24T04:32:33;11.80;99.90
46508;DHT22;32223;53.654;10.014;2022-09-24T04:34:59;11.80;99.90
46508;DHT22;32223;53.654;10.014;2022-09-24T04:37:24;11.80;99.90
46508;DHT22;32223;53.654;10.014;2022-09-24T04:39:50;11.80;99.90
46508;DHT22;32223;53.654;10.014;2022-09-24T04:42:17;11.80;99.90
46508;DHT22;32223;53.654;10.014;2022-09-24T04:44:43;11.80;99.90
46508;DHT22;32223;53.654;10.014;2022-09-24T04:47:15;11.70;99.90
46508;DHT22;32223;53.654;10.014;2022-09-24T04:49:41;11.80;99.90
46508;DHT22;32223;53.654;10.014;2022-09-24T04:52:13;11.80;99.90
46508;DHT22;32223;53.654;10.014;2022-09-24T04:54:42;11.70;99.90
46508;DHT22;32223;53.654;10.014;2022-09-24T04:57:13;11.70;99.90
46508;DHT22;32223;53.654;10.014;2022-09-24T04:59:39;11.80;99.90
46508;DHT22;32223;53.654;10.014;2022-09-24T05:02:07;11.80;99.90
46508;DHT22;32223;53.654;10.014;2022-09-24T05:04:36;11.80;99.90
46508;DHT22;32223;53.654;10.014;2022-09-24T05:07:03;11.80;99.90
46508;DHT22;32223;53.654;10.014;2022-09-24T05:09:29;11.80;99.90
46508;DHT22;32223;53.654;10.014;2022-09-24T05:11:57;11.70;99.90
46508;DHT22;32223;53.654;10.014;2022-09-24T05:14:24;11.80;99.90
46508;DHT22;32223;53.654;10.014;2022-09-24T05:16:49;11.80;99.90
46508;DHT22;32223;53.654;10.014;2022-09-24T05:19:15;11.80;99.90
46508;DHT22;32223;53.654;10.014;2022-09-24T05:21:41;11.80;99.90
46508;DHT22;32223;53.654;10.014;2022-09-24T05:24:06;11.80;99.90
46508;DHT22;32223;53.654;10.014;2022-09-24T05:26:32;11.80;99.90
46508;DHT22;32223;53.654;10.014;2022-09-24T05:29:17;11.80;99.90
46508;DHT22;32223;53.654;10.014;2022-09-24T05:31:42;11.80;99.90
46508;DHT22;32223;53.654;10.014;2022-09-24T05:34:08;11.80;99.90
46508;DHT22;32223;53.654;10.014;2022-09-24T05:36:34;11.80;99.90
46508;DHT22;32223;53.654;10.014;2022-09-24T05:39:00;11.80;99.90
46508;DHT22;32223;53.654;10.014;2022-09-24T05:41:25;11.90;99.90
46508;DHT22;32223;53.654;10.014;2022-09-24T05:43:51;11.80;99.90
46508;DHT22;32223;53.654;10.014;2022-09-24T05:46:16;11.90;99.90
46508;DHT22;32223;53.654;10.014;2022-09-24T05:48:42;11.90;99.90
46508;DHT22;32223;53.654;10.014;2022-09-24T05:51:08;11.90;99.90
46508;DHT22;32223;53.654;10.014;2022-09-24T05:53:33;11.90;99.90
46508;DHT22;32223;53.654;10.014;2022-09-24T05:55:59;12.00;99.90
46508;DHT22;32223;53.654;10.014;2022-09-24T05:58:26;12.00;99.90
46508;DHT22;32223;53.654;10.014;2022-09-24T06:00:51;12.00;99.90
46508;DHT22;32223;53.654;10.014;2022-09-24T06:03:18;12.00;99.90
46508;DHT22;32223;53.654;10.014;2022-09-24T06:05:45;12.00;99.90
46508;DHT22;32223;53.654;10.014;2022-09-24T06:08:12;12.10;99.90
46508;DHT22;32223;53.654;10.014;2022-09-24T06:10:40;12.10;99.90
46508;DHT22;32223;53.654;10.014;2022-09-24T06:13:06;12.00;99.90
46508;DHT22;32223;53.654;10.014;2022-09-24T06:15:32;12.00;99.90
46508;DHT22;32223;53.654;10.014;2022-09-24T06:17:59;12.00;99.90
46508;DHT22;32223;53.654;10.014;2022-09-24T06:20:25;12.00;99.90
46508;DHT22;32223;53.654;10.014;2022-09-24T06:22:54;12.10;99.90
46508;DHT22;32223;53.654;10.014;2022-09-24T06:25:20;12.10;99.90
46508;DHT22;32223;53.654;10.014;2022-09-24T06:28:02;12.10;99.90
46508;DHT22;32223;53.654;10.014;2022-09-24T06:33:03;12.10;99.90
46508;DHT22;32223;53.654;10.014;2022-09-24T06:35:31;12.10;99.90
46508;DHT22;32223;53.654;10.014;2022-09-24T06:37:57;12.10;99.90
46508;DHT22;32223;53.654;10.014;2022-09-24T06:40:23;12.10;99.90
46508;DHT22;32223;53.654;10.014;2022-09-24T06:42:51;12.10;99.90
46508;DHT22;32223;53.654;10.014;2022-09-24T06:45:17;12.10;99.90
46508;DHT22;32223;53.654;10.014;2022-09-24T06:47:43;12.10;99.90
46508;DHT22;32223;53.654;10.014;2022-09-24T06:50:10;12.10;99.90
46508;DHT22;32223;53.654;10.014;2022-09-24T06:52:35;12.10;99.90
46508;DHT22;32223;53.654;10.014;2022-09-24T06:55:01;12.10;99.90
46508;DHT22;32223;53.654;10.014;2022-09-24T06:57:26;12.10;99.90
46508;DHT22;32223;53.654;10.014;2022-09-24T06:59:52;12.10;99.90
46508;DHT22;32223;53.654;10.014;2022-09-24T07:02:17;12.10;99.90
46508;DHT22;32223;53.654;10.014;2022-09-24T07:04:43;12.10;99.90
46508;DHT22;32223;53.654;10.014;2022-09-24T07:07:09;12.10;99.90
46508;DHT22;32223;53.654;10.014;2022-09-24T07:09:53;12.10;99.90
46508;DHT22;32223;53.654;10.014;2022-09-24T07:12:18;12.10;99.90
46508;DHT22;32223;53.654;10.014;2022-09-24T07:14:44;12.10;99.90
46508;DHT22;32223;53.654;10.014;2022-09-24T07:17:10;12.10;99.90
46508;DHT22;32223;53.654;10.014;2022-09-24T07:19:35;12.10;99.90
46508;DHT22;32223;53.654;10.014;2022-09-24T07:22:03;12.10;99.90
46508;DHT22;32223;53.654;10.014;2022-09-24T07:24:28;12.20;99.90
46508;DHT22;32223;53.654;10.014;2022-09-24T07:26:54;12.20;99.90
46508;DHT22;32223;53.654;10.014;2022-09-24T07:29:19;12.20;99.90
46508;DHT22;32223;53.654;10.014;2022-09-24T07:31:45;12.20;99.90
46508;DHT22;32223;53.654;10.014;2022-09-24T07:34:11;12.20;99.90
46508;DHT22;32223;53.654;10.014;2022-09-24T07:36:38;12.20;99.90
46508;DHT22;32223;53.654;10.014;2022-09-24T07:39:04;12.20;99.90
46508;DHT22;32223;53.654;10.014;2022-09-24T07:41:30;12.20;99.90
46508;DHT22;32223;53.654;10.014;2022-09-24T07:43:55;12.20;99.90
46508;DHT22;32223;53.654;10.014;2022-09-24T07:46:21;12.10;99.90
46508;DHT22;32223;53.654;10.014;2022-09-24T07:48:48;12.20;99.90
46508;DHT22;32223;53.654;10.014;2022-09-24T07:51:14;12.20;99.90
46508;DHT22;32223;53.654;10.014;2022-09-24T07:53:39;12.20;99.90
46508;DHT22;32223;53.654;10.014;2022-09-24T07:56:05;12.20;99.90
46508;DHT22;32223;53.654;10.014;2022-09-24T07:58:31;12.20;99.90
46508;DHT22;32223;53.654;10.014;2022-09-24T08:00:57;12.20;99.90
46508;DHT22;32223;53.654;10.014;2022-09-24T08:03:23;12.20;99.90
46508;DHT22;32223;53.654;10.014;2022-09-24T08:05:49;12.20;99.90
46508;DHT22;32223;53.654;10.014;2022-09-24T08:08:14;12.30;99.90
46508;DHT22;32223;53.654;10.014;2022-09-24T08:10:40;12.30;99.90
46508;DHT22;32223;53.654;10.014;2022-09-24T08:13:06;12.30;99.90
46508;DHT22;32223;53.654;10.014;2022-09-24T08:15:33;12.30;99.90
46508;DHT22;32223;53.654;10.014;2022-09-24T08:18:03;12.30;99.90
46508;DHT22;32223;53.654;10.014;2022-09-24T08:20:30;12.30;99.90
46508;DHT22;32223;53.654;10.014;2022-09-24T08:23:03;12.30;99.90
46508;DHT22;32223;53.654;10.014;2022-09-24T08:25:29;12.30;99.90
46508;DHT22;32223;53.654;10.014;2022-09-24T08:28:00;12.30;99.90
46508;DHT22;32223;53.654;10.014;2022-09-24T08:30:26;12.30;99.90
46508;DHT22;32223;53.654;10.014;2022-09-24T08:32:51;12.40;99.90
46508;DHT22;32223;53.654;10.014;2022-09-24T08:35:17;12.40;99.90
46508;DHT22;32223;53.654;10.014;2022-09-24T08:37:43;12.40;99.90
46508;DHT22;32223;53.654;10.014;2022-09-24T08:40:20;12.40;99.90
46508;DHT22;32223;53.654;10.014;2022-09-24T08:43:13;12.40;99.90
46508;DHT22;32223;53.654;10.014;2022-09-24T08:45:45;12.40;99.90
46508;DHT22;32223;53.654;10.014;2022-09-24T08:48:34;12.50;99.90
46508;DHT22;32223;53.654;10.014;2022-09-24T08:51:04;12.60;99.90
46508;DHT22;32223;53.654;10.014;2022-09-24T08:53:50;12.60;99.90
46508;DHT22;32223;53.654;10.014;2022-09-24T08:56:25;12.70;99.90
46508;DHT22;32223;53.654;10.014;2022-09-24T08:58:52;12.70;99.90
46508;DHT22;32223;53.654;10.014;2022-09-24T09:04:32;12.80;99.90
46508;DHT22;32223;53.654;10.014;2022-09-24T09:07:20;12.80;99.90
46508;DHT22;32223;53.654;10.014;2022-09-24T09:09:53;12.90;99.90
46508;DHT22;32223;53.654;10.014;2022-09-24T09:12:25;12.80;99.90
46508;DHT22;32223;53.654;10.014;2022-09-24T09:15:16;12.90;99.90
46508;DHT22;32223;53.654;10.014;2022-09-24T09:17:53;12.90;99.90
46508;DHT22;32223;53.654;10.014;2022-09-24T09:20:41;12.90;99.90
46508;DHT22;32223;53.654;10.014;2022-09-24T09:23:25;12.90;99.90
46508;DHT22;32223;53.654;10.014;2022-09-24T09:25:56;13.00;99.90
46508;DHT22;32223;53.654;10.014;2022-09-24T09:28:22;13.00;99.90
46508;DHT22;32223;53.654;10.014;2022-09-24T09:42:34;13.30;99.90
46508;DHT22;32223;53.654;10.014;2022-09-24T09:45:28;13.40;99.90
46508;DHT22;32223;53.654;10.014;2022-09-24T09:47:56;13.30;99.90
46508;DHT22;32223;53.654;10.014;2022-09-24T09:53:03;13.40;99.90
46508;DHT22;32223;53.654;10.014;2022-09-24T09:55:33;13.40;99.90
46508;DHT22;32223;53.654;10.014;2022-09-24T09:58:16;13.40;99.90
46508;DHT22;32223;53.654;10.014;2022-09-24T10:00:44;13.30;99.90
46508;DHT22;32223;53.654;10.014;2022-09-24T10:03:29;13.40;99.90
46508;DHT22;32223;53.654;10.014;2022-09-24T10:05:59;13.30;99.90
46508;DHT22;32223;53.654;10.014;2022-09-24T10:08:25;13.30;99.90
46508;DHT22;32223;53.654;10.014;2022-09-24T10:10:55;13.30;99.90
46508;DHT22;32223;53.654;10.014;2022-09-24T10:13:22;13.30;99.90
46508;DHT22;32223;53.654;10.014;2022-09-24T10:21:01;13.20;99.90
46508;DHT22;32223;53.654;10.014;2022-09-24T10:23:36;13.30;99.90
46508;DHT22;32223;53.654;10.014;2022-09-24T10:26:04;13.20;99.90
46508;DHT22;32223;53.654;10.014;2022-09-24T10:28:32;13.30;99.90
46508;DHT22;32223;53.654;10.014;2022-09-24T10:31:25;13.30;99.90
46508;DHT22;32223;53.654;10.014;2022-09-24T10:33:54;13.30;99.90
46508;DHT22;32223;53.654;10.014;2022-09-24T10:36:27;13.40;99.90
46508;DHT22;32223;53.654;10.014;2022-09-24T10:41:33;13.60;99.90
46508;DHT22;32223;53.654;10.014;2022-09-24T10:44:08;13.60;99.90
46508;DHT22;32223;53.654;10.014;2022-09-24T10:52:19;13.90;99.90
46508;DHT22;32223;53.654;10.014;2022-09-24T11:00:38;13.90;99.90
46508;DHT22;32223;53.654;10.014;2022-09-24T11:03:28;13.90;99.90
46508;DHT22;32223;53.654;10.014;2022-09-24T11:06:15;13.90;99.90
46508;DHT22;32223;53.654;10.014;2022-09-24T11:11:45;13.90;99.90
46508;DHT22;32223;53.654;10.014;2022-09-24T11:17:36;13.80;99.90
46508;DHT22;32223;53.654;10.014;2022-09-24T11:34:00;13.90;99.90
46508;DHT22;32223;53.654;10.014;2022-09-24T11:56:19;13.80;99.90
46508;DHT22;32223;53.654;10.014;2022-09-24T12:01:49;13.80;99.90
46508;DHT22;32223;53.654;10.014;2022-09-24T12:04:37;13.90;99.90
46508;DHT22;32223;53.654;10.014;2022-09-24T12:07:12;13.80;99.90
46508;DHT22;32223;53.654;10.014;2022-09-24T12:12:34;13.90;99.90
46508;DHT22;32223;53.654;10.014;2022-09-24T12:15:21;13.90;99.90
46508;DHT22;32223;53.654;10.014;2022-09-24T12:17:58;14.00;99.90
46508;DHT22;32223;53.654;10.014;2022-09-24T12:20:29;13.90;99.90
46508;DHT22;32223;53.654;10.014;2022-09-24T12:23:08;14.00;99.90
46508;DHT22;32223;53.654;10.014;2022-09-24T12:25:44;14.00;99.90
46508;DHT22;32223;53.654;10.014;2022-09-24T12:28:18;14.00;99.90
46508;DHT22;32223;53.654;10.014;2022-09-24T12:34:25;13.90;99.90
46508;DHT22;32223;53.654;10.014;2022-09-24T12:37:07;14.00;99.90
46508;DHT22;32223;53.654;10.014;2022-09-24T12:40:07;14.00;99.90
46508;DHT22;32223;53.654;10.014;2022-09-24T12:42:49;14.00;99.90
46508;DHT22;32223;53.654;10.014;2022-09-24T12:45:19;14.00;99.90
46508;DHT22;32223;53.654;10.014;2022-09-24T12:47:54;14.10;99.90
46508;DHT22;32223;53.654;10.014;2022-09-24T12:50:25;14.10;99.90
46508;DHT22;32223;53.654;10.014;2022-09-24T12:52:52;14.10;99.90
46508;DHT22;32223;53.654;10.014;2022-09-24T12:55:24;14.10;99.90
46508;DHT22;32223;53.654;10.014;2022-09-24T12:57:58;14.20;99.90
46508;DHT22;32223;53.654;10.014;2022-09-24T13:02:57;14.20;99.90
46508;DHT22;32223;53.654;10.014;2022-09-24T13:10:33;14.10;99.90
46508;DHT22;32223;53.654;10.014;2022-09-24T13:13:20;14.10;99.90
46508;DHT22;32223;53.654;10.014;2022-09-24T13:16:04;14.20;99.90
46508;DHT22;32223;53.654;10.014;2022-09-24T13:18:34;14.20;99.90
46508;DHT22;32223;53.654;10.014;2022-09-24T13:21:06;14.20;99.90
46508;DHT22;32223;53.654;10.014;2022-09-24T13:26:04;14.20;99.90
46508;DHT22;32223;53.654;10.014;2022-09-24T13:28:54;14.30;99.90
46508;DHT22;32223;53.654;10.014;2022-09-24T13:34:10;14.30;99.90
46508;DHT22;32223;53.654;10.014;2022-09-24T13:42:18;14.20;99.90
46508;DHT22;32223;53.654;10.014;2022-09-24T13:44:55;14.20;99.90
46508;DHT22;32223;53.654;10.014;2022-09-24T13:47:37;14.10;99.90
46508;DHT22;32223;53.654;10.014;2022-09-24T13:50:07;14.20;99.90
46508;DHT22;32223;53.654;10.014;2022-09-24T13:52:48;14.20;99.90
46508;DHT22;32223;53.654;10.014;2022-09-24T13:55:38;14.20;99.90
46508;DHT22;32223;53.654;10.014;2022-09-24T14:00:52;14.20;99.90
46508;DHT22;32223;53.654;10.014;2022-09-24T14:03:25;14.20;99.90
46508;DHT22;32223;53.654;10.014;2022-09-24T14:05:51;14.30;99.90
46508;DHT22;32223;53.654;10.014;2022-09-24T14:08:20;14.40;99.90
46508;DHT22;32223;53.654;10.014;2022-09-24T14:10:46;14.50;99.90
46508;DHT22;32223;53.654;10.014;2022-09-24T14:13:24;14.60;99.90
46508;DHT22;32223;53.654;10.014;2022-09-24T14:18:17;14.60;99.90
46508;DHT22;32223;53.654;10.014;2022-09-24T14:20:44;14.60;99.90
46508;DHT22;32223;53.654;10.014;2022-09-24T14:23:17;14.50;99.90
46508;DHT22;32223;53.654;10.014;2022-09-24T14:25:45;14.50;99.90
46508;DHT22;32223;53.654;10.014;2022-09-24T14:28:13;14.50;99.90
46508;DHT22;32223;53.654;10.014;2022-09-24T14:30:48;14.50;99.90
46508;DHT22;32223;53.654;10.014;2022-09-24T14:33:18;14.50;99.90
46508;DHT22;32223;53.654;10.014;2022-09-24T14:35:46;14.50;99.90
46508;DHT22;32223;53.654;10.014;2022-09-24T14:38:17;14.40;99.90
46508;DHT22;32223;53.654;10.014;2022-09-24T14:40:54;14.30;99.90
46508;DHT22;32223;53.654;10.014;2022-09-24T14:43:25;14.30;99.90
46508;DHT22;32223;53.654;10.014;2022-09-24T14:46:22;14.30;99.90
46508;DHT22;32223;53.654;10.014;2022-09-24T14:48:46;14.20;99.90
46508;DHT22;32223;53.654;10.014;2022-09-24T14:51:29;14.20;99.90
46508;DHT22;32223;53.654;10.014;2022-09-24T14:54:02;14.20;99.90
46508;DHT22;32223;53.654;10.014;2022-09-24T14:56:31;14.20;99.90
46508;DHT22;32223;53.654;10.014;2022-09-24T14:58:58;14.20;99.90
46508;DHT22;32223;53.654;10.014;2022-09-24T15:01:31;14.20;99.90
46508;DHT22;32223;53.654;10.014;2022-09-24T15:04:02;14.20;99.90
46508;DHT22;32223;53.654;10.014;2022-09-24T15:06:36;14.10;99.90
46508;DHT22;32223;53.654;10.014;2022-09-24T15:09:13;14.20;99.90
46508;DHT22;32223;53.654;10.014;2022-09-24T15:11:40;14.20;99.90
46508;DHT22;32223;53.654;10.014;2022-09-24T15:16:45;14.20;99.90
46508;DHT22;32223;53.654;10.014;2022-09-24T15:19:22;14.20;99.90
46508;DHT22;32223;53.654;10.014;2022-09-24T15:21:51;14.20;99.90
46508;DHT22;32223;53.654;10.014;2022-09-24T15:24:18;14.10;99.90
46508;DHT22;32223;53.654;10.014;2022-09-24T15:26:48;14.20;99.90
46508;DHT22;32223;53.654;10.014;2022-09-24T15:29:23;14.20;99.90
46508;DHT22;32223;53.654;10.014;2022-09-24T15:31:50;14.10;99.90
46508;DHT22;32223;53.654;10.014;2022-09-24T15:34:16;14.10;99.90
46508;DHT22;32223;53.654;10.014;2022-09-24T15:36:42;14.10;99.90
46508;DHT22;32223;53.654;10.014;2022-09-24T15:39:09;14.10;99.90
46508;DHT22;32223;53.654;10.014;2022-09-24T15:41:34;14.10;99.90
46508;DHT22;32223;53.654;10.014;2022-09-24T15:44:00;14.10;99.90
46508;DHT22;32223;53.654;10.014;2022-09-24T15:46:26;14.10;99.90
46508;DHT22;32223;53.654;10.014;2022-09-24T15:48:52;14.10;99.90
46508;DHT22;32223;53.654;10.014;2022-09-24T15:51:19;14.10;99.90
46508;DHT22;32223;53.654;10.014;2022-09-24T15:53:46;14.10;99.90
46508;DHT22;32223;53.654;10.014;2022-09-24T15:56:12;14.10;99.90
46508;DHT22;32223;53.654;10.014;2022-09-24T15:58:38;14.10;99.90
46508;DHT22;32223;53.654;10.014;2022-09-24T16:01:04;14.10;99.90
46508;DHT22;32223;53.654;10.014;2022-09-24T16:03:31;14.10;99.90
46508;DHT22;32223;53.654;10.014;2022-09-24T16:05:58;14.00;99.90
46508;DHT22;32223;53.654;10.014;2022-09-24T16:08:24;14.00;99.90
46508;DHT22;32223;53.654;10.014;2022-09-24T16:10:50;14.10;99.90
46508;DHT22;32223;53.654;10.014;2022-09-24T16:13:17;14.10;99.90
46508;DHT22;32223;53.654;10.014;2022-09-24T16:15:43;14.00;99.90
46508;DHT22;32223;53.654;10.014;2022-09-24T16:18:12;14.00;99.90
46508;DHT22;32223;53.654;10.014;2022-09-24T16:20:39;13.90;99.90
46508;DHT22;32223;53.654;10.014;2022-09-24T16:23:05;13.90;99.90
46508;DHT22;32223;53.654;10.014;2022-09-24T16:25:31;14.00;99.90
46508;DHT22;32223;53.654;10.014;2022-09-24T16:27:57;13.90;99.90
46508;DHT22;32223;53.654;10.014;2022-09-24T16:30:23;13.80;99.90
46508;DHT22;32223;53.654;10.014;2022-09-24T16:32:49;13.80;99.90
46508;DHT22;32223;53.654;10.014;2022-09-24T16:35:15;13.80;99.90
46508;DHT22;32223;53.654;10.014;2022-09-24T16:37:41;13.80;99.90
46508;DHT22;32223;53.654;10.014;2022-09-24T16:40:06;13.80;99.90
46508;DHT22;32223;53.654;10.014;2022-09-24T16:42:33;13.80;99.90
46508;DHT22;32223;53.654;10.014;2022-09-24T16:44:58;13.80;99.90
46508;DHT22;32223;53.654;10.014;2022-09-24T16:47:24;13.80;99.90
46508;DHT22;32223;53.654;10.014;2022-09-24T16:49:50;13.80;99.90
46508;DHT22;32223;53.654;10.014;2022-09-24T16:52:15;13.80;99.90
46508;DHT22;32223;53.654;10.014;2022-09-24T16:54:41;13.80;99.90
46508;DHT22;32223;53.654;10.014;2022-09-24T16:57:06;13.80;99.90
46508;DHT22;32223;53.654;10.014;2022-09-24T16:59:32;13.80;99.90
46508;DHT22;32223;53.654;10.014;2022-09-24T17:01:58;13.80;99.90
46508;DHT22;32223;53.654;10.014;2022-09-24T17:04:24;13.70;99.90
46508;DHT22;32223;53.654;10.014;2022-09-24T17:06:55;13.70;99.90
46508;DHT22;32223;53.654;10.014;2022-09-24T17:09:20;13.70;99.90
46508;DHT22;32223;53.654;10.014;2022-09-24T17:12:05;13.70;99.90
46508;DHT22;32223;53.654;10.014;2022-09-24T17:14:30;13.60;99.90
46508;DHT22;32223;53.654;10.014;2022-09-24T17:16:56;13.60;99.90
46508;DHT22;32223;53.654;10.014;2022-09-24T17:19:22;13.60;99.90
46508;DHT22;32223;53.654;10.014;2022-09-24T17:21:47;13.60;99.90
46508;DHT22;32223;53.654;10.014;2022-09-24T17:24:17;13.50;99.90
46508;DHT22;32223;53.654;10.014;2022-09-24T17:26:43;13.50;99.90
46508;DHT22;32223;53.654;10.014;2022-09-24T17:29:09;13.40;99.90
46508;DHT22;32223;53.654;10.014;2022-09-24T17:31:35;13.40;99.90
46508;DHT22;32223;53.654;10.014;2022-09-24T17:34:03;13.40;99.90
46508;DHT22;32223;53.654;10.014;2022-09-24T17:36:30;13.40;99.90
46508;DHT22;32223;53.654;10.014;2022-09-24T17:38:56;13.30;99.90
46508;DHT22;32223;53.654;10.014;2022-09-24T17:41:23;13.30;99.90
46508;DHT22;32223;53.654;10.014;2022-09-24T17:43:49;13.30;99.90
46508;DHT22;32223;53.654;10.014;2022-09-24T17:46:20;13.20;99.90
46508;DHT22;32223;53.654;10.014;2022-09-24T17:48:49;13.20;99.90